sensor_id;sensor_type;location;lat;lon;timestamp;P1;durP1;ratioP1;P2;durP2;ratioP2
60819;SDS011;46641;48.904;9.126;2022-09-29T00:01:31;2.63;;;2.27;;
60819;SDS011;46641;48.904;9.126;2022-09-29T00:06:21;2.35;;;2.13;;
60819;SDS011;46641;48.904;9.126;2022-09-29T00:11:13;2.93;;;2.13;;
60819;SDS011;46641;48.904;9.126;2022-09-29T00:16:05;2.63;;;2.43;;
60819;SDS011;46641;48.904;9.126;2022-09-29T00:20:57;2.57;;;2.37;;
60819;SDS011;46641;48.904;9.126;2022-09-29T00:25:59;3.93;;;2.30;;
60819;SDS011;46641;48.904;9.126;2022-09-29T00:30:56;3.60;;;2.87;;
60819;SDS011;46641;48.904;9.126;2022-09-29T00:35:54;3.47;;;2.67;;
60819;SDS011;46641;48.904;9.126;2022-09-29T00:40:47;3.50;;;2.43;;
60819;SDS011;46641;48.904;9.126;2022-09-29T00:45:37;3.77;;;2.60;;
60819;SDS011;46641;48.904;9.126;2022-09-29T00:50:35;2.33;;;2.13;;
60819;SDS011;46641;48.904;9.126;2022-09-29T00:55:35;2.63;;;2.43;;
60819;SDS011;46641;48.904;9.126;2022-09-29T01:00:30;3.10;;;2.40;;
60819;SDS011;46641;48.904;9.126;2022-09-29T01:05:23;2.27;;;2.07;;
60819;SDS011;46641;48.904;9.126;2022-09-29T01:10:18;2.53;;;2.10;;
60819;SDS011;46641;48.904;9.126;2022-09-29T01:15:09;2.80;;;2.50;;
60819;SDS011;46641;48.904;9.126;2022-09-29T01:20:15;2.93;;;2.57;;
60819;SDS011;46641;48.904;9.126;2022-09-29T01:40:50;2.80;;;2.60;;
60819;SDS011;46641;48.904;9.126;2022-09-29T01:46:05;3.17;;;2.50;;
60819;SDS011;46641;48.904;9.126;2022-09-29T01:51:04;2.87;;;2.57;;
60819;SDS011;46641;48.904;9.126;2022-09-29T01:56:00;2.87;;;2.60;;
60819;SDS011;46641;48.904;9.126;2022-09-29T02:00:58;2.63;;;2.20;;
60819;SDS011;46641;48.904;9.126;2022-09-29T02:05:53;3.10;;;2.90;;
60819;SDS011;46641;48.904;9.126;2022-09-29T02:15:57;2.60;;;2.33;;
60819;SDS011;46641;48.904;9.126;2022-09-29T02:20:49;2.97;;;2.67;;
60819;SDS011;46641;48.904;9.126;2022-09-29T02:25:40;2.77;;;2.57;;
60819;SDS011;46641;48.904;9.126;2022-09-29T02:30:32;2.83;;;2.63;;
60819;SDS011;46641;48.904;9.126;2022-09-29T02:35:23;3.20;;;2.50;;
60819;SDS011;46641;48.904;9.126;2022-09-29T02:50:20;3.10;;;2.47;;
60819;SDS011;46641;48.904;9.126;2022-09-29T02:55:39;3.47;;;3.17;;
60819;SDS011;46641;48.904;9.126;2022-09-29T03:00:38;3.40;;;3.10;;
60819;SDS011;46641;48.904;9.126;2022-09-29T03:05:29;2.93;;;2.73;;
60819;SDS011;46641;48.904;9.126;2022-09-29T03:10:20;3.63;;;3.33;;
60819;SDS011;46641;48.904;9.126;2022-09-29T03:15:10;3.70;;;2.87;;
60819;SDS011;46641;48.904;9.126;2022-09-29T03:20:01;3.83;;;2.43;;
60819;SDS011;46641;48.904;9.126;2022-09-29T03:24:52;2.73;;;2.50;;
60819;SDS011;46641;48.904;9.126;2022-09-29T03:29:42;2.85;;;2.65;;
60819;SDS011;46641;48.904;9.126;2022-09-29T03:34:32;3.90;;;2.83;;
60819;SDS011;46641;48.904;9.126;2022-09-29T03:39:23;3.30;;;3.00;;
60819;SDS011;46641;48.904;9.126;2022-09-29T03:44:14;3.73;;;3.30;;
60819;SDS011;46641;48.904;9.126;2022-09-29T03:49:05;4.87;;;3.07;;
60819;SDS011;46641;48.904;9.126;2022-09-29T03:53:55;3.87;;;2.70;;
60819;SDS011;46641;48.904;9.126;2022-09-29T03:58:45;4.30;;;3.60;;
60819;SDS011;46641;48.904;9.126;2022-09-29T04:03:36;4.57;;;3.60;;
60819;SDS011;46641;48.904;9.126;2022-09-29T04:08:26;3.85;;;3.45;;
60819;SDS011;46641;48.904;9.126;2022-09-29T04:13:16;3.40;;;3.10;;
60819;SDS011;46641;48.904;9.126;2022-09-29T04:18:07;3.03;;;2.83;;
60819;SDS011;46641;48.904;9.126;2022-09-29T04:22:57;3.23;;;2.93;;
60819;SDS011;46641;48.904;9.126;2022-09-29T04:27:48;3.23;;;2.93;;
60819;SDS011;46641;48.904;9.126;2022-09-29T04:32:38;3.50;;;3.22;;
60819;SDS011;46641;48.904;9.126;2022-09-29T04:37:28;3.15;;;2.85;;
60819;SDS011;46641;48.904;9.126;2022-09-29T04:42:20;3.60;;;3.30;;
60819;SDS011;46641;48.904;9.126;2022-09-29T04:47:10;4.30;;;3.40;;
60819;SDS011;46641;48.904;9.126;2022-09-29T04:52:01;3.87;;;3.57;;
60819;SDS011;46641;48.904;9.126;2022-09-29T04:56:51;3.58;;;2.92;;
60819;SDS011;46641;48.904;9.126;2022-09-29T05:01:42;4.50;;;3.50;;
60819;SDS011;46641;48.904;9.126;2022-09-29T05:06:32;3.87;;;3.40;;
60819;SDS011;46641;48.904;9.126;2022-09-29T05:11:28;3.83;;;3.10;;
60819;SDS011;46641;48.904;9.126;2022-09-29T05:16:18;5.43;;;4.22;;
60819;SDS011;46641;48.904;9.126;2022-09-29T05:21:08;4.07;;;3.67;;
60819;SDS011;46641;48.904;9.126;2022-09-29T05:26:02;3.73;;;3.43;;
60819;SDS011;46641;48.904;9.126;2022-09-29T05:30:54;5.97;;;4.30;;
60819;SDS011;46641;48.904;9.126;2022-09-29T05:35:44;5.23;;;3.27;;
60819;SDS011;46641;48.904;9.126;2022-09-29T05:40:35;4.30;;;3.22;;
60819;SDS011;46641;48.904;9.126;2022-09-29T05:45:26;6.23;;;4.13;;
60819;SDS011;46641;48.904;9.126;2022-09-29T05:50:16;5.80;;;4.67;;
60819;SDS011;46641;48.904;9.126;2022-09-29T05:55:07;6.38;;;4.25;;
60819;SDS011;46641;48.904;9.126;2022-09-29T06:00:01;4.30;;;3.90;;
60819;SDS011;46641;48.904;9.126;2022-09-29T06:04:52;4.93;;;4.53;;
60819;SDS011;46641;48.904;9.126;2022-09-29T06:09:43;6.15;;;4.30;;
60819;SDS011;46641;48.904;9.126;2022-09-29T06:14:33;4.60;;;3.50;;
60819;SDS011;46641;48.904;9.126;2022-09-29T06:19:23;4.45;;;3.67;;
60819;SDS011;46641;48.904;9.126;2022-09-29T06:24:13;4.33;;;3.83;;
60819;SDS011;46641;48.904;9.126;2022-09-29T06:29:04;3.50;;;3.20;;
60819;SDS011;46641;48.904;9.126;2022-09-29T06:34:01;4.05;;;3.60;;
60819;SDS011;46641;48.904;9.126;2022-09-29T06:38:53;6.47;;;3.50;;
60819;SDS011;46641;48.904;9.126;2022-09-29T06:43:44;4.57;;;3.47;;
60819;SDS011;46641;48.904;9.126;2022-09-29T06:48:34;5.57;;;4.35;;
60819;SDS011;46641;48.904;9.126;2022-09-29T06:53:25;4.33;;;3.93;;
60819;SDS011;46641;48.904;9.126;2022-09-29T06:58:16;4.20;;;3.63;;
60819;SDS011;46641;48.904;9.126;2022-09-29T07:03:06;5.60;;;4.20;;
60819;SDS011;46641;48.904;9.126;2022-09-29T07:07:56;4.80;;;4.40;;
60819;SDS011;46641;48.904;9.126;2022-09-29T07:12:46;6.07;;;5.07;;
60819;SDS011;46641;48.904;9.126;2022-09-29T07:17:37;6.63;;;5.83;;
60819;SDS011;46641;48.904;9.126;2022-09-29T07:22:27;7.03;;;6.17;;
60819;SDS011;46641;48.904;9.126;2022-09-29T07:27:18;6.57;;;5.73;;
60819;SDS011;46641;48.904;9.126;2022-09-29T07:32:13;5.93;;;5.03;;
60819;SDS011;46641;48.904;9.126;2022-09-29T07:37:03;6.25;;;4.97;;
60819;SDS011;46641;48.904;9.126;2022-09-29T07:41:53;9.13;;;5.80;;
60819;SDS011;46641;48.904;9.126;2022-09-29T07:46:47;6.53;;;5.90;;
60819;SDS011;46641;48.904;9.126;2022-09-29T07:51:37;7.17;;;5.80;;
60819;SDS011;46641;48.904;9.126;2022-09-29T07:56:28;7.57;;;6.10;;
60819;SDS011;46641;48.904;9.126;2022-09-29T08:01:18;8.88;;;7.78;;
60819;SDS011;46641;48.904;9.126;2022-09-29T08:06:09;13.40;;;12.03;;
60819;SDS011;46641;48.904;9.126;2022-09-29T08:11:04;7.83;;;5.90;;
60819;SDS011;46641;48.904;9.126;2022-09-29T08:15:57;6.03;;;5.43;;
60819;SDS011;46641;48.904;9.126;2022-09-29T08:20:48;6.80;;;6.10;;
60819;SDS011;46641;48.904;9.126;2022-09-29T08:25:39;5.77;;;5.20;;
60819;SDS011;46641;48.904;9.126;2022-09-29T08:30:29;7.43;;;6.63;;
60819;SDS011;46641;48.904;9.126;2022-09-29T08:35:19;8.25;;;5.53;;
60819;SDS011;46641;48.904;9.126;2022-09-29T08:40:10;6.87;;;6.23;;
60819;SDS011;46641;48.904;9.126;2022-09-29T08:45:01;7.70;;;6.43;;
60819;SDS011;46641;48.904;9.126;2022-09-29T08:49:58;5.67;;;4.73;;
60819;SDS011;46641;48.904;9.126;2022-09-29T08:54:54;5.80;;;5.23;;
60819;SDS011;46641;48.904;9.126;2022-09-29T08:59:51;6.53;;;4.47;;
60819;SDS011;46641;48.904;9.126;2022-09-29T09:10:07;4.80;;;3.83;;
60819;SDS011;46641;48.904;9.126;2022-09-29T09:15:12;4.30;;;3.53;;
60819;SDS011;46641;48.904;9.126;2022-09-29T09:25:31;5.50;;;3.63;;
60819;SDS011;46641;48.904;9.126;2022-09-29T09:30:23;5.70;;;3.53;;
60819;SDS011;46641;48.904;9.126;2022-09-29T09:40:42;6.10;;;3.60;;
60819;SDS011;46641;48.904;9.126;2022-09-29T09:45:36;3.70;;;3.30;;
60819;SDS011;46641;48.904;9.126;2022-09-29T09:50:31;3.60;;;3.13;;
60819;SDS011;46641;48.904;9.126;2022-09-29T09:55:25;4.47;;;3.50;;
60819;SDS011;46641;48.904;9.126;2022-09-29T10:00:18;4.43;;;3.17;;
60819;SDS011;46641;48.904;9.126;2022-09-29T10:05:13;6.53;;;5.82;;
60819;SDS011;46641;48.904;9.126;2022-09-29T10:10:12;6.83;;;4.30;;
60819;SDS011;46641;48.904;9.126;2022-09-29T10:15:23;4.27;;;3.87;;
60819;SDS011;46641;48.904;9.126;2022-09-29T10:20:27;3.67;;;2.83;;
60819;SDS011;46641;48.904;9.126;2022-09-29T10:25:22;6.20;;;3.23;;
60819;SDS011;46641;48.904;9.126;2022-09-29T10:30:15;3.97;;;2.97;;
60819;SDS011;46641;48.904;9.126;2022-09-29T10:35:16;3.40;;;2.23;;
60819;SDS011;46641;48.904;9.126;2022-09-29T10:40:13;4.13;;;2.00;;
60819;SDS011;46641;48.904;9.126;2022-09-29T10:45:11;1.80;;;1.70;;
60819;SDS011;46641;48.904;9.126;2022-09-29T10:50:19;4.30;;;2.70;;
60819;SDS011;46641;48.904;9.126;2022-09-29T10:55:16;5.40;;;2.93;;
60819;SDS011;46641;48.904;9.126;2022-09-29T11:05:35;3.33;;;3.03;;
60819;SDS011;46641;48.904;9.126;2022-09-29T11:10:27;3.27;;;2.73;;
60819;SDS011;46641;48.904;9.126;2022-09-29T11:15:28;3.93;;;3.40;;
60819;SDS011;46641;48.904;9.126;2022-09-29T11:20:30;3.57;;;3.10;;
60819;SDS011;46641;48.904;9.126;2022-09-29T11:25:31;2.73;;;2.53;;
60819;SDS011;46641;48.904;9.126;2022-09-29T11:30:31;4.13;;;2.60;;
60819;SDS011;46641;48.904;9.126;2022-09-29T11:35:57;3.07;;;2.73;;
60819;SDS011;46641;48.904;9.126;2022-09-29T11:45:52;3.10;;;2.90;;
60819;SDS011;46641;48.904;9.126;2022-09-29T11:51:14;4.43;;;2.83;;
60819;SDS011;46641;48.904;9.126;2022-09-29T11:56:17;2.80;;;2.50;;
60819;SDS011;46641;48.904;9.126;2022-09-29T12:11:40;3.17;;;2.87;;
60819;SDS011;46641;48.904;9.126;2022-09-29T12:16:43;3.77;;;2.80;;
60819;SDS011;46641;48.904;9.126;2022-09-29T12:21:42;3.00;;;2.70;;
60819;SDS011;46641;48.904;9.126;2022-09-29T12:26:39;3.13;;;2.40;;
60819;SDS011;46641;48.904;9.126;2022-09-29T12:31:32;3.17;;;2.60;;
60819;SDS011;46641;48.904;9.126;2022-09-29T12:42:16;3.07;;;2.40;;
60819;SDS011;46641;48.904;9.126;2022-09-29T12:47:28;3.30;;;2.87;;
60819;SDS011;46641;48.904;9.126;2022-09-29T12:52:23;2.50;;;2.30;;
60819;SDS011;46641;48.904;9.126;2022-09-29T12:57:24;3.08;;;2.60;;
60819;SDS011;46641;48.904;9.126;2022-09-29T13:02:27;3.20;;;2.30;;
60819;SDS011;46641;48.904;9.126;2022-09-29T13:27:42;3.50;;;2.23;;
60819;SDS011;46641;48.904;9.126;2022-09-29T13:32:37;2.87;;;2.10;;
60819;SDS011;46641;48.904;9.126;2022-09-29T13:37:33;3.60;;;1.70;;
60819;SDS011;46641;48.904;9.126;2022-09-29T13:47:30;2.10;;;1.90;;
60819;SDS011;46641;48.904;9.126;2022-09-29T13:52:28;3.00;;;1.60;;
60819;SDS011;46641;48.904;9.126;2022-09-29T13:57:20;2.90;;;2.03;;
60819;SDS011;46641;48.904;9.126;2022-09-29T14:07:40;3.77;;;1.80;;
60819;SDS011;46641;48.904;9.126;2022-09-29T14:12:33;1.40;;;1.30;;
60819;SDS011;46641;48.904;9.126;2022-09-29T14:17:25;1.87;;;1.60;;
60819;SDS011;46641;48.904;9.126;2022-09-29T14:27:31;2.27;;;1.67;;
60819;SDS011;46641;48.904;9.126;2022-09-29T14:32:26;3.10;;;1.83;;
60819;SDS011;46641;48.904;9.126;2022-09-29T14:37:41;2.23;;;1.40;;
60819;SDS011;46641;48.904;9.126;2022-09-29T14:42:32;3.97;;;1.60;;
60819;SDS011;46641;48.904;9.126;2022-09-29T14:47:30;2.13;;;1.40;;
60819;SDS011;46641;48.904;9.126;2022-09-29T14:53:33;1.40;;;1.20;;
60819;SDS011;46641;48.904;9.126;2022-09-29T15:03:32;2.53;;;1.37;;
60819;SDS011;46641;48.904;9.126;2022-09-29T15:08:28;2.77;;;1.57;;
60819;SDS011;46641;48.904;9.126;2022-09-29T15:13:24;3.03;;;1.60;;
60819;SDS011;46641;48.904;9.126;2022-09-29T15:18:34;2.97;;;1.60;;
60819;SDS011;46641;48.904;9.126;2022-09-29T15:23:49;4.17;;;1.83;;
60819;SDS011;46641;48.904;9.126;2022-09-29T15:28:56;3.17;;;2.17;;
60819;SDS011;46641;48.904;9.126;2022-09-29T15:33:47;1.30;;;1.20;;
60819;SDS011;46641;48.904;9.126;2022-09-29T15:38:38;6.00;;;2.77;;
60819;SDS011;46641;48.904;9.126;2022-09-29T15:43:39;7.77;;;5.13;;
60819;SDS011;46641;48.904;9.126;2022-09-29T15:48:40;10.77;;;9.77;;
60819;SDS011;46641;48.904;9.126;2022-09-29T15:53:30;5.00;;;4.25;;
60819;SDS011;46641;48.904;9.126;2022-09-29T16:03:22;3.23;;;2.93;;
60819;SDS011;46641;48.904;9.126;2022-09-29T16:08:19;3.70;;;3.27;;
60819;SDS011;46641;48.904;9.126;2022-09-29T16:13:16;5.17;;;3.67;;
60819;SDS011;46641;48.904;9.126;2022-09-29T16:18:14;5.73;;;3.10;;
60819;SDS011;46641;48.904;9.126;2022-09-29T16:28:24;3.67;;;2.70;;
60819;SDS011;46641;48.904;9.126;2022-09-29T16:33:19;4.57;;;2.07;;
60819;SDS011;46641;48.904;9.126;2022-09-29T16:38:30;2.33;;;1.83;;
60819;SDS011;46641;48.904;9.126;2022-09-29T16:43:25;3.47;;;2.37;;
60819;SDS011;46641;48.904;9.126;2022-09-29T16:48:20;4.03;;;2.40;;
60819;SDS011;46641;48.904;9.126;2022-09-29T16:53:26;3.20;;;2.47;;
60819;SDS011;46641;48.904;9.126;2022-09-29T16:58:18;3.83;;;2.90;;
60819;SDS011;46641;48.904;9.126;2022-09-29T17:03:09;8.03;;;5.43;;
60819;SDS011;46641;48.904;9.126;2022-09-29T17:07:59;8.70;;;7.50;;
60819;SDS011;46641;48.904;9.126;2022-09-29T17:12:51;7.23;;;4.37;;
60819;SDS011;46641;48.904;9.126;2022-09-29T17:17:44;5.93;;;3.23;;
60819;SDS011;46641;48.904;9.126;2022-09-29T17:22:36;3.60;;;2.67;;
60819;SDS011;46641;48.904;9.126;2022-09-29T17:27:26;4.40;;;3.42;;
60819;SDS011;46641;48.904;9.126;2022-09-29T17:32:36;5.73;;;2.60;;
60819;SDS011;46641;48.904;9.126;2022-09-29T17:37:33;4.33;;;2.40;;
60819;SDS011;46641;48.904;9.126;2022-09-29T17:42:23;4.60;;;2.47;;
60819;SDS011;46641;48.904;9.126;2022-09-29T17:47:15;2.60;;;2.40;;
60819;SDS011;46641;48.904;9.126;2022-09-29T17:52:06;2.63;;;2.40;;
60819;SDS011;46641;48.904;9.126;2022-09-29T17:56:59;3.63;;;2.90;;
60819;SDS011;46641;48.904;9.126;2022-09-29T18:01:49;3.67;;;2.60;;
60819;SDS011;46641;48.904;9.126;2022-09-29T18:06:40;2.42;;;2.00;;
60819;SDS011;46641;48.904;9.126;2022-09-29T18:11:31;6.43;;;3.50;;
60819;SDS011;46641;48.904;9.126;2022-09-29T18:16:22;4.67;;;2.97;;
60819;SDS011;46641;48.904;9.126;2022-09-29T18:21:12;3.90;;;2.57;;
60819;SDS011;46641;48.904;9.126;2022-09-29T18:26:08;5.00;;;3.03;;
60819;SDS011;46641;48.904;9.126;2022-09-29T18:31:06;3.70;;;2.60;;
60819;SDS011;46641;48.904;9.126;2022-09-29T18:36:09;2.47;;;2.27;;
60819;SDS011;46641;48.904;9.126;2022-09-29T18:41:00;4.90;;;3.03;;
60819;SDS011;46641;48.904;9.126;2022-09-29T18:45:51;4.10;;;3.20;;
60819;SDS011;46641;48.904;9.126;2022-09-29T18:50:42;4.07;;;3.07;;
60819;SDS011;46641;48.904;9.126;2022-09-29T18:55:34;7.10;;;3.50;;
60819;SDS011;46641;48.904;9.126;2022-09-29T19:00:26;3.27;;;2.73;;
60819;SDS011;46641;48.904;9.126;2022-09-29T19:05:21;4.20;;;3.50;;
60819;SDS011;46641;48.904;9.126;2022-09-29T19:10:13;2.97;;;2.67;;
60819;SDS011;46641;48.904;9.126;2022-09-29T19:15:05;3.20;;;2.80;;
60819;SDS011;46641;48.904;9.126;2022-09-29T19:19:56;3.07;;;2.30;;
60819;SDS011;46641;48.904;9.126;2022-09-29T19:24:47;4.37;;;2.63;;
60819;SDS011;46641;48.904;9.126;2022-09-29T19:29:37;4.65;;;2.83;;
60819;SDS011;46641;48.904;9.126;2022-09-29T19:34:29;3.73;;;2.70;;
60819;SDS011;46641;48.904;9.126;2022-09-29T19:39:20;3.27;;;2.87;;
60819;SDS011;46641;48.904;9.126;2022-09-29T19:44:12;2.80;;;2.47;;
60819;SDS011;46641;48.904;9.126;2022-09-29T19:49:02;3.70;;;2.87;;
60819;SDS011;46641;48.904;9.126;2022-09-29T19:53:52;3.57;;;2.63;;
60819;SDS011;46641;48.904;9.126;2022-09-29T19:58:59;3.37;;;2.60;;
60819;SDS011;46641;48.904;9.126;2022-09-29T20:03:49;3.10;;;2.53;;
60819;SDS011;46641;48.904;9.126;2022-09-29T20:08:39;4.17;;;3.30;;
60819;SDS011;46641;48.904;9.126;2022-09-29T20:13:30;5.10;;;4.00;;
60819;SDS011;46641;48.904;9.126;2022-09-29T20:18:20;5.78;;;3.88;;
60819;SDS011;46641;48.904;9.126;2022-09-29T20:23:10;6.57;;;3.80;;
60819;SDS011;46641;48.904;9.126;2022-09-29T20:28:00;5.97;;;4.38;;
60819;SDS011;46641;48.904;9.126;2022-09-29T20:32:51;7.00;;;4.70;;
60819;SDS011;46641;48.904;9.126;2022-09-29T20:37:41;5.03;;;4.37;;
60819;SDS011;46641;48.904;9.126;2022-09-29T20:42:31;5.72;;;4.20;;
60819;SDS011;46641;48.904;9.126;2022-09-29T20:47:27;6.97;;;4.50;;
60819;SDS011;46641;48.904;9.126;2022-09-29T20:52:17;5.47;;;4.68;;
60819;SDS011;46641;48.904;9.126;2022-09-29T20:57:07;8.55;;;4.80;;
60819;SDS011;46641;48.904;9.126;2022-09-29T21:01:58;6.10;;;5.53;;
60819;SDS011;46641;48.904;9.126;2022-09-29T21:06:49;5.20;;;4.47;;
60819;SDS011;46641;48.904;9.126;2022-09-29T21:11:41;5.93;;;5.43;;
60819;SDS011;46641;48.904;9.126;2022-09-29T21:16:32;5.43;;;4.93;;
60819;SDS011;46641;48.904;9.126;2022-09-29T21:21:23;7.73;;;6.93;;
60819;SDS011;46641;48.904;9.126;2022-09-29T21:26:14;5.43;;;4.90;;
60819;SDS011;46641;48.904;9.126;2022-09-29T21:31:12;6.63;;;4.23;;
60819;SDS011;46641;48.904;9.126;2022-09-29T21:36:06;5.03;;;4.50;;
60819;SDS011;46641;48.904;9.126;2022-09-29T21:41:03;4.87;;;4.47;;
60819;SDS011;46641;48.904;9.126;2022-09-29T21:51:02;5.67;;;5.10;;
60819;SDS011;46641;48.904;9.126;2022-09-29T21:55:58;6.23;;;5.47;;
60819;SDS011;46641;48.904;9.126;2022-09-29T22:00:49;5.77;;;5.27;;
60819;SDS011;46641;48.904;9.126;2022-09-29T22:05:40;5.87;;;4.93;;
60819;SDS011;46641;48.904;9.126;2022-09-29T22:10:31;5.83;;;4.90;;
60819;SDS011;46641;48.904;9.126;2022-09-29T22:15:21;7.32;;;5.35;;
60819;SDS011;46641;48.904;9.126;2022-09-29T22:20:12;5.50;;;4.80;;
60819;SDS011;46641;48.904;9.126;2022-09-29T22:25:03;5.43;;;4.93;;
60819;SDS011;46641;48.904;9.126;2022-09-29T22:29:53;6.40;;;5.27;;
60819;SDS011;46641;48.904;9.126;2022-09-29T22:34:44;5.63;;;4.97;;
60819;SDS011;46641;48.904;9.126;2022-09-29T22:39:34;5.90;;;5.10;;
60819;SDS011;46641;48.904;9.126;2022-09-29T22:44:25;5.30;;;4.80;;
60819;SDS011;46641;48.904;9.126;2022-09-29T22:49:15;6.17;;;4.97;;
60819;SDS011;46641;48.904;9.126;2022-09-29T22:54:05;5.65;;;4.97;;
60819;SDS011;46641;48.904;9.126;2022-09-29T22:59:00;5.72;;;5.10;;
60819;SDS011;46641;48.904;9.126;2022-09-29T23:03:51;7.83;;;5.50;;
60819;SDS011;46641;48.904;9.126;2022-09-29T23:08:41;5.10;;;4.70;;
60819;SDS011;46641;48.904;9.126;2022-09-29T23:13:32;5.97;;;4.40;;
60819;SDS011;46641;48.904;9.126;2022-09-29T23:18:25;6.53;;;5.80;;
60819;SDS011;46641;48.904;9.126;2022-09-29T23:23:16;5.32;;;4.82;;
60819;SDS011;46641;48.904;9.126;2022-09-29T23:28:06;5.47;;;4.80;;
60819;SDS011;46641;48.904;9.126;2022-09-29T23:32:56;4.80;;;4.33;;
60819;SDS011;46641;48.904;9.126;2022-09-29T23:37:46;5.47;;;4.97;;
60819;SDS011;46641;48.904;9.126;2022-09-29T23:42:55;5.80;;;4.30;;
60819;SDS011;46641;48.904;9.126;2022-09-29T23:47:46;5.38;;;4.88;;
60819;SDS011;46641;48.904;9.126;2022-09-29T23:52:36;6.03;;;4.63;;
60819;SDS011;46641;48.904;9.126;2022-09-29T23:57:27;7.10;;;5.63;;
